createdAt,value
2023-03-10T00:02:34.980Z,4.17
2023-03-10T00:06:38.492Z,6.27
2023-03-10T00:10:41.220Z,4.47
2023-03-10T00:14:45.616Z,3.23
2023-03-10T00:18:48.552Z,4.70
2023-03-10T00:22:51.462Z,4.30
2023-03-10T00:26:54.142Z,4.67
2023-03-10T00:31:03.369Z,7.83
2023-03-10T00:35:07.307Z,5.17
2023-03-10T00:39:11.922Z,4.97
2023-03-10T00:43:14.688Z,4.07
2023-03-10T00:47:18.758Z,4.03
2023-03-10T00:51:22.316Z,3.37
2023-03-10T00:55:24.960Z,4.93
2023-03-10T00:59:29.591Z,4.80
2023-03-10T01:03:37.092Z,9.80
2023-03-10T01:07:40.034Z,4.33
2023-03-10T01:11:42.852Z,6.10
2023-03-10T01:15:47.755Z,2.93
2023-03-10T01:19:51.976Z,4.70
2023-03-10T01:23:54.651Z,2.97
2023-03-10T01:27:57.300Z,3.80
2023-03-10T01:32:00.163Z,2.13
2023-03-10T01:36:08.744Z,2.57
2023-03-10T01:40:16.347Z,4.37
2023-03-10T01:44:20.951Z,4.50
2023-03-10T01:48:23.959Z,4.90
2023-03-10T01:52:31.037Z,3.90
2023-03-10T01:56:34.129Z,4.43
2023-03-10T02:00:37.264Z,6.33
2023-03-10T02:04:43.577Z,3.20
2023-03-10T02:08:51.710Z,2.93
2023-03-10T02:12:54.480Z,3.73
2023-03-10T02:16:57.625Z,4.03
2023-03-10T02:21:05.122Z,4.10
2023-03-10T02:25:19.789Z,2.70
2023-03-10T02:29:28.282Z,3.07
2023-03-10T02:33:32.708Z,3.70
2023-03-10T02:37:36.495Z,5.33
2023-03-10T02:41:40.172Z,7.20
2023-03-10T02:45:46.351Z,3.70
2023-03-10T02:49:49.062Z,3.00
2023-03-10T02:53:51.763Z,2.97
2023-03-10T02:57:54.965Z,3.33
2023-03-10T03:01:58.986Z,5.30
2023-03-10T03:06:01.708Z,4.03
2023-03-10T03:10:04.985Z,4.27
2023-03-10T03:14:07.978Z,3.67
2023-03-10T03:18:12.240Z,5.10
2023-03-10T03:22:15.198Z,3.50
2023-03-10T03:26:19.797Z,2.27
2023-03-10T03:30:24.264Z,3.30
2023-03-10T03:34:28.246Z,3.87
2023-03-10T03:38:32.642Z,5.90
2023-03-10T03:42:35.292Z,3.17
2023-03-10T03:46:38.350Z,5.23
2023-03-10T03:50:42.876Z,4.57
2023-03-10T03:54:45.551Z,4.30
2023-03-10T03:58:48.206Z,4.33
2023-03-10T04:02:51.281Z,6.10
2023-03-10T04:06:58.071Z,2.93
2023-03-10T04:11:00.732Z,3.90
2023-03-10T04:15:03.835Z,5.47
2023-03-10T04:19:07.951Z,3.43
2023-03-10T04:23:11.963Z,4.13
2023-03-10T04:27:14.626Z,4.97
2023-03-10T04:31:19.154Z,3.27
2023-03-10T04:35:22.369Z,5.13
2023-03-10T04:39:26.807Z,4.57
2023-03-10T04:43:29.929Z,4.63
2023-03-10T04:47:32.670Z,4.67
2023-03-10T04:51:35.961Z,4.17
2023-03-10T04:55:39.946Z,3.93
2023-03-10T04:59:42.682Z,5.17
2023-03-10T05:03:45.374Z,5.67
2023-03-10T05:07:50.250Z,3.53
2023-03-10T05:11:56.567Z,5.97
2023-03-10T05:15:59.257Z,3.67
2023-03-10T05:20:01.925Z,2.30
2023-03-10T05:24:04.868Z,2.83
2023-03-10T05:28:09.354Z,2.57
2023-03-10T05:32:12.310Z,2.83
2023-03-10T05:36:15.155Z,4.60
2023-03-10T05:40:19.689Z,2.37
2023-03-10T05:44:23.811Z,5.00
2023-03-10T05:48:27.198Z,1.80
2023-03-10T05:52:29.861Z,1.73
2023-03-10T05:56:33.168Z,1.37
2023-03-10T06:00:37.743Z,0.83
2023-03-10T06:04:40.525Z,2.23
2023-03-10T06:08:43.872Z,1.73
2023-03-10T06:12:46.608Z,0.60
2023-03-10T06:16:52.088Z,1.80
2023-03-10T06:20:55.343Z,1.90
2023-03-10T06:24:58.244Z,2.03
2023-03-10T06:29:01.289Z,2.47
2023-03-10T06:33:06.031Z,1.80
2023-03-10T06:37:08.767Z,1.97
2023-03-10T06:41:11.807Z,3.93
2023-03-10T06:45:16.818Z,2.60
2023-03-10T06:49:21.135Z,2.73
2023-03-10T06:53:24.049Z,2.20
2023-03-10T06:57:27.205Z,2.77
2023-03-10T07:01:31.358Z,2.87
2023-03-10T07:05:35.528Z,2.47
2023-03-10T07:09:38.240Z,1.83
2023-03-10T07:13:41.115Z,2.43
2023-03-10T07:17:44.650Z,1.93
2023-03-10T07:21:48.944Z,3.43
2023-03-10T07:25:53.672Z,2.40
2023-03-10T07:29:58.200Z,1.97
2023-03-10T07:34:01.952Z,1.50
2023-03-10T07:38:06.314Z,2.33
2023-03-10T07:42:09.111Z,3.40
2023-03-10T07:46:13.536Z,1.53
2023-03-10T07:50:16.513Z,0.70
2023-03-10T07:54:20.596Z,1.60
2023-03-10T07:58:24.308Z,2.57
2023-03-10T08:02:27.194Z,0.93
2023-03-10T08:06:30.838Z,2.63
2023-03-10T08:10:34.881Z,1.17
2023-03-10T08:14:37.807Z,1.40
2023-03-10T08:18:40.711Z,1.30
2023-03-10T08:22:43.470Z,4.00
2023-03-10T08:26:47.459Z,10.27
2023-03-10T08:31:03.994Z,1.63
2023-03-10T08:35:09.224Z,1.00
2023-03-10T08:39:12.343Z,1.63
2023-03-10T08:43:16.445Z,2.07
2023-03-10T08:47:19.239Z,0.80
2023-03-10T08:51:24.535Z,1.30
2023-03-10T08:55:27.294Z,1.13
2023-03-10T08:59:32.004Z,3.83
2023-03-10T09:03:36.803Z,1.10
2023-03-10T09:07:39.646Z,1.40
2023-03-10T09:11:42.789Z,0.73
2023-03-10T09:15:46.826Z,1.10
2023-03-10T09:19:49.532Z,0.83
2023-03-10T09:23:53.140Z,1.00
2023-03-10T09:27:56.076Z,1.43
2023-03-10T09:32:00.158Z,1.50
2023-03-10T09:36:07.735Z,1.27
2023-03-10T09:40:14.826Z,2.47
2023-03-10T09:44:25.961Z,1.77
2023-03-10T09:48:37.541Z,0.90
2023-03-10T09:52:46.403Z,1.53
2023-03-10T09:56:49.068Z,0.77
2023-03-10T10:00:51.743Z,1.23
2023-03-10T10:04:58.317Z,3.00
2023-03-10T10:09:05.716Z,0.83
2023-03-10T10:13:13.516Z,1.37
2023-03-10T10:17:25.511Z,0.70
2023-03-10T10:21:42.348Z,1.63
2023-03-10T10:25:45.746Z,0.93
2023-03-10T10:29:48.773Z,0.70
2023-03-10T10:33:54.513Z,0.40
2023-03-10T10:38:03.918Z,0.20
2023-03-10T10:42:14.398Z,0.60
2023-03-10T10:46:25.851Z,0.23
2023-03-10T10:50:31.665Z,1.80
2023-03-10T10:54:39.502Z,1.10
2023-03-10T10:58:43.785Z,1.23
2023-03-10T11:02:46.907Z,2.53
2023-03-10T11:06:50.865Z,1.73
2023-03-10T11:10:59.227Z,3.73
2023-03-10T11:15:10.748Z,1.87
2023-03-10T11:19:18.313Z,5.07
2023-03-10T11:23:23.676Z,6.43
2023-03-10T11:27:36.958Z,4.73
2023-03-10T11:31:44.468Z,2.13
2023-03-10T11:35:48.609Z,2.60
2023-03-10T11:39:55.397Z,2.97
2023-03-10T11:44:01.766Z,2.97
2023-03-10T11:48:26.532Z,3.27
2023-03-10T11:52:30.792Z,2.50
2023-03-10T11:56:33.532Z,2.40
2023-03-10T12:00:41.219Z,2.23
2023-03-10T12:04:48.153Z,1.83
2023-03-10T12:08:52.831Z,2.20
2023-03-10T12:12:59.290Z,3.30
2023-03-10T12:17:04.019Z,2.80
2023-03-10T12:21:18.309Z,2.53
2023-03-10T12:25:48.966Z,3.80
2023-03-10T12:29:51.695Z,2.40
2023-03-10T12:34:11.083Z,1.20
2023-03-10T12:38:28.683Z,0.57
2023-03-10T12:42:32.832Z,0.63
2023-03-10T12:46:43.795Z,0.50
2023-03-10T12:50:49.497Z,0.50
2023-03-10T12:54:56.542Z,0.83
2023-03-10T12:59:04.924Z,0.67
2023-03-10T13:03:18.335Z,0.73
2023-03-10T13:07:22.713Z,0.50
2023-03-10T13:11:32.086Z,1.00
2023-03-10T13:15:35.866Z,0.50
2023-03-10T13:19:40.013Z,0.80
2023-03-10T13:23:44.559Z,1.00
2023-03-10T13:27:47.335Z,0.43
2023-03-10T13:31:53.153Z,0.30
2023-03-10T13:35:56.007Z,0.47
2023-03-10T13:40:10.268Z,0.40
2023-03-10T13:44:18.616Z,0.60
2023-03-10T13:48:22.609Z,0.50
2023-03-10T13:52:27.246Z,0.87
2023-03-10T13:56:36.069Z,1.03
2023-03-10T14:00:38.809Z,0.90
2023-03-10T14:04:46.632Z,0.87
2023-03-10T14:08:50.659Z,1.20
2023-03-10T14:12:55.655Z,0.67
2023-03-10T14:17:00.178Z,0.50
2023-03-10T14:21:24.490Z,0.93
2023-03-10T14:25:27.956Z,1.23
2023-03-10T14:29:32.434Z,0.40
2023-03-10T14:33:36.662Z,0.20
2023-03-10T14:37:39.379Z,0.30
2023-03-10T14:41:42.314Z,0.63
2023-03-10T14:45:47.200Z,0.13
2023-03-10T14:49:50.161Z,0.40
2023-03-10T14:53:52.801Z,0.43
2023-03-10T14:57:58.709Z,0.70
2023-03-10T15:02:07.753Z,0.67
2023-03-10T15:06:12.903Z,1.17
2023-03-10T15:10:17.152Z,1.13
2023-03-10T15:14:20.605Z,1.00
2023-03-10T15:18:27.001Z,1.17
2023-03-10T15:22:29.759Z,1.00
2023-03-10T15:26:32.420Z,0.50
2023-03-10T15:30:36.377Z,0.70
2023-03-10T15:34:43.439Z,0.70
2023-03-10T15:38:46.412Z,1.77
2023-03-10T15:42:49.745Z,8.77
2023-03-10T15:46:54.799Z,5.33
2023-03-10T15:50:58.984Z,5.17
2023-03-10T15:55:01.929Z,1.63
2023-03-10T15:59:05.040Z,1.27
2023-03-10T16:03:07.779Z,1.70
2023-03-10T16:07:12.601Z,1.27
2023-03-10T16:11:17.968Z,0.30
2023-03-10T16:15:20.938Z,0.60
2023-03-10T16:19:23.916Z,0.23
2023-03-10T16:23:28.683Z,0.67
2023-03-10T16:27:31.622Z,0.33
2023-03-10T16:31:34.663Z,0.40
2023-03-10T16:35:39.203Z,0.97
2023-03-10T16:39:43.541Z,0.50
2023-03-10T16:43:46.515Z,0.40
2023-03-10T16:47:49.427Z,0.60
2023-03-10T16:51:52.417Z,0.60
2023-03-10T16:56:05.100Z,0.73
2023-03-10T17:00:10.736Z,1.40
2023-03-10T17:04:13.625Z,0.30
2023-03-10T17:08:16.342Z,0.60
2023-03-10T17:12:20.968Z,0.70
2023-03-10T17:16:28.236Z,0.47
2023-03-10T17:20:31.147Z,0.50
2023-03-10T17:24:33.833Z,2.10
2023-03-10T17:28:40.993Z,0.87
2023-03-10T17:32:45.149Z,1.30
2023-03-10T17:36:50.639Z,1.63
2023-03-10T17:40:54.800Z,0.80
2023-03-10T17:44:59.859Z,1.30
2023-03-10T17:49:02.806Z,2.63
2023-03-10T17:53:05.534Z,5.10
2023-03-10T17:57:08.305Z,3.90
2023-03-10T18:01:14.332Z,1.63
2023-03-10T18:05:17.178Z,2.40
2023-03-10T18:09:20.136Z,2.27
2023-03-10T18:13:22.861Z,1.93
2023-03-10T18:17:28.814Z,3.00
2023-03-10T18:21:31.685Z,2.67
2023-03-10T18:25:34.693Z,3.33
2023-03-10T18:29:37.706Z,2.77
2023-03-10T18:33:41.833Z,2.90
2023-03-10T18:37:44.801Z,3.10
2023-03-10T18:41:47.464Z,2.97
2023-03-10T18:45:50.221Z,3.30
2023-03-10T18:49:54.326Z,3.43
2023-03-10T18:54:00.222Z,3.07
2023-03-10T18:58:02.913Z,6.13
2023-03-10T19:02:06.001Z,6.00
2023-03-10T19:06:10.399Z,2.83
2023-03-10T19:10:14.880Z,2.80
2023-03-10T19:14:18.359Z,3.13
2023-03-10T19:18:21.831Z,3.37
2023-03-10T19:22:25.893Z,2.23
2023-03-10T19:26:28.651Z,2.70
2023-03-10T19:30:32.623Z,3.77
2023-03-10T19:34:35.877Z,4.63
2023-03-10T19:38:41.005Z,4.13
2023-03-10T19:42:46.964Z,2.03
2023-03-10T19:46:49.848Z,4.13
2023-03-10T19:50:54.262Z,2.40
2023-03-10T19:54:58.524Z,2.30
2023-03-10T19:59:01.308Z,1.63
2023-03-10T20:03:04.346Z,1.43
2023-03-10T20:07:07.393Z,2.30
2023-03-10T20:11:14.666Z,1.57
2023-03-10T20:15:18.120Z,1.53
2023-03-10T20:19:22.741Z,1.03
2023-03-10T20:23:25.581Z,2.00
2023-03-10T20:27:29.893Z,2.57
2023-03-10T20:31:34.104Z,1.33
2023-03-10T20:35:38.070Z,0.87
2023-03-10T20:39:41.442Z,0.90
2023-03-10T20:43:45.797Z,2.47
2023-03-10T20:47:48.673Z,1.13
2023-03-10T20:51:51.394Z,0.90
2023-03-10T20:55:54.102Z,1.90
2023-03-10T20:59:58.360Z,1.13
2023-03-10T21:04:01.593Z,2.37
2023-03-10T21:08:04.639Z,3.27
2023-03-10T21:12:07.966Z,1.00
2023-03-10T21:16:13.217Z,1.10
2023-03-10T21:20:17.535Z,1.13
2023-03-10T21:24:20.414Z,0.70
2023-03-10T21:28:23.290Z,0.90
2023-03-10T21:32:27.720Z,1.03
2023-03-10T21:36:30.487Z,1.50
2023-03-10T21:40:33.236Z,3.13
2023-03-10T21:44:35.924Z,1.10
2023-03-10T21:48:40.017Z,1.40
2023-03-10T21:52:43.233Z,1.90
2023-03-10T21:56:48.364Z,2.60
2023-03-10T22:00:51.047Z,2.00
2023-03-10T22:04:58.450Z,2.40
2023-03-10T22:09:01.199Z,3.00
2023-03-10T22:13:04.203Z,1.80
2023-03-10T22:17:07.013Z,2.20
2023-03-10T22:21:11.100Z,1.80
2023-03-10T22:25:14.579Z,2.00
2023-03-10T22:29:19.224Z,1.93
2023-03-10T22:33:21.903Z,1.80
2023-03-10T22:37:25.919Z,1.90
2023-03-10T22:41:29.846Z,5.37
2023-03-10T22:45:33.425Z,1.80
2023-03-10T22:49:36.304Z,1.53
2023-03-10T22:53:40.342Z,1.60
2023-03-10T22:57:43.017Z,1.50
2023-03-10T23:01:46.108Z,1.87
2023-03-10T23:05:49.231Z,1.33
2023-03-10T23:09:53.262Z,1.47
2023-03-10T23:13:55.920Z,2.80
2023-03-10T23:17:58.990Z,1.17
2023-03-10T23:22:01.646Z,1.37
2023-03-10T23:26:06.054Z,1.40
2023-03-10T23:30:10.540Z,1.30
2023-03-10T23:34:13.483Z,1.20
2023-03-10T23:38:16.278Z,1.10
2023-03-10T23:42:20.767Z,1.30
2023-03-10T23:46:23.875Z,1.53
2023-03-10T23:50:28.914Z,1.10
2023-03-10T23:54:31.556Z,1.23
2023-03-10T23:58:35.888Z,1.00
